sensor_id;sensor_type;location;lat;lon;timestamp;temperature;humidity
6792;DHT22;3433;48.730;9.108;2023-04-24T00:01:34;11.80;99.90
6792;DHT22;3433;48.730;9.108;2023-04-24T00:04:02;11.90;99.90
6792;DHT22;3433;48.730;9.108;2023-04-24T00:06:29;11.90;99.90
6792;DHT22;3433;48.730;9.108;2023-04-24T00:08:59;11.90;99.90
6792;DHT22;3433;48.730;9.108;2023-04-24T00:11:27;11.90;99.90
6792;DHT22;3433;48.730;9.108;2023-04-24T00:13:57;11.80;99.90
6792;DHT22;3433;48.730;9.108;2023-04-24T00:16:25;11.70;99.90
6792;DHT22;3433;48.730;9.108;2023-04-24T00:18:52;11.80;99.90
6792;DHT22;3433;48.730;9.108;2023-04-24T00:21:19;11.80;99.90
6792;DHT22;3433;48.730;9.108;2023-04-24T00:23:47;11.90;99.90
6792;DHT22;3433;48.730;9.108;2023-04-24T00:26:14;11.90;99.90
6792;DHT22;3433;48.730;9.108;2023-04-24T00:28:41;11.90;99.90
6792;DHT22;3433;48.730;9.108;2023-04-24T00:31:08;11.90;99.90
6792;DHT22;3433;48.730;9.108;2023-04-24T00:33:37;11.90;99.90
6792;DHT22;3433;48.730;9.108;2023-04-24T00:36:04;11.90;99.90
6792;DHT22;3433;48.730;9.108;2023-04-24T00:38:31;12.00;99.90
6792;DHT22;3433;48.730;9.108;2023-04-24T00:40:58;12.00;99.90
6792;DHT22;3433;48.730;9.108;2023-04-24T00:43:25;12.00;99.90
6792;DHT22;3433;48.730;9.108;2023-04-24T00:45:52;12.00;99.90
6792;DHT22;3433;48.730;9.108;2023-04-24T00:48:20;12.10;99.90
6792;DHT22;3433;48.730;9.108;2023-04-24T00:50:49;12.00;99.90
6792;DHT22;3433;48.730;9.108;2023-04-24T00:53:16;12.10;99.90
6792;DHT22;3433;48.730;9.108;2023-04-24T00:55:43;12.20;99.90
6792;DHT22;3433;48.730;9.108;2023-04-24T00:58:11;12.20;99.90
6792;DHT22;3433;48.730;9.108;2023-04-24T01:00:38;12.10;99.90
6792;DHT22;3433;48.730;9.108;2023-04-24T01:03:05;12.10;99.90
6792;DHT22;3433;48.730;9.108;2023-04-24T01:05:32;12.00;99.90
6792;DHT22;3433;48.730;9.108;2023-04-24T01:08:01;11.90;99.90
6792;DHT22;3433;48.730;9.108;2023-04-24T01:10:29;12.00;99.90
6792;DHT22;3433;48.730;9.108;2023-04-24T01:12:58;12.00;99.90
6792;DHT22;3433;48.730;9.108;2023-04-24T01:15:25;12.00;99.90
6792;DHT22;3433;48.730;9.108;2023-04-24T01:17:52;12.20;99.90
6792;DHT22;3433;48.730;9.108;2023-04-24T01:20:19;12.10;99.90
6792;DHT22;3433;48.730;9.108;2023-04-24T01:22:48;12.10;99.90
6792;DHT22;3433;48.730;9.108;2023-04-24T01:25:15;12.10;99.90
6792;DHT22;3433;48.730;9.108;2023-04-24T01:27:43;12.10;99.90
6792;DHT22;3433;48.730;9.108;2023-04-24T01:30:12;12.20;99.90
6792;DHT22;3433;48.730;9.108;2023-04-24T01:32:42;12.20;99.90
6792;DHT22;3433;48.730;9.108;2023-04-24T01:35:10;12.20;99.90
6792;DHT22;3433;48.730;9.108;2023-04-24T01:37:37;12.10;99.90
6792;DHT22;3433;48.730;9.108;2023-04-24T01:40:32;12.10;99.90
6792;DHT22;3433;48.730;9.108;2023-04-24T01:43:09;11.90;99.90
6792;DHT22;3433;48.730;9.108;2023-04-24T01:45:49;11.80;99.90
6792;DHT22;3433;48.730;9.108;2023-04-24T01:48:33;11.90;99.90
6792;DHT22;3433;48.730;9.108;2023-04-24T01:51:00;11.90;99.90
6792;DHT22;3433;48.730;9.108;2023-04-24T01:53:27;11.90;99.90
6792;DHT22;3433;48.730;9.108;2023-04-24T01:55:56;11.80;99.90
6792;DHT22;3433;48.730;9.108;2023-04-24T01:58:23;11.90;99.90
6792;DHT22;3433;48.730;9.108;2023-04-24T02:00:51;11.90;99.90
6792;DHT22;3433;48.730;9.108;2023-04-24T02:03:18;11.90;99.90
6792;DHT22;3433;48.730;9.108;2023-04-24T02:05:45;11.90;99.90
6792;DHT22;3433;48.730;9.108;2023-04-24T02:08:12;11.90;99.90
6792;DHT22;3433;48.730;9.108;2023-04-24T02:10:39;12.00;99.90
6792;DHT22;3433;48.730;9.108;2023-04-24T02:13:09;11.90;99.90
6792;DHT22;3433;48.730;9.108;2023-04-24T02:15:53;12.00;99.90
6792;DHT22;3433;48.730;9.108;2023-04-24T02:18:20;12.00;99.90
6792;DHT22;3433;48.730;9.108;2023-04-24T02:21:02;12.00;99.90
6792;DHT22;3433;48.730;9.108;2023-04-24T02:23:29;11.80;99.90
6792;DHT22;3433;48.730;9.108;2023-04-24T02:25:56;11.80;99.90
6792;DHT22;3433;48.730;9.108;2023-04-24T02:28:24;11.80;99.90
6792;DHT22;3433;48.730;9.108;2023-04-24T02:30:55;11.80;99.90
6792;DHT22;3433;48.730;9.108;2023-04-24T02:34:33;11.80;99.90
6792;DHT22;3433;48.730;9.108;2023-04-24T02:37:00;11.80;99.90
6792;DHT22;3433;48.730;9.108;2023-04-24T02:39:28;11.80;99.90
6792;DHT22;3433;48.730;9.108;2023-04-24T02:42:09;11.80;99.90
6792;DHT22;3433;48.730;9.108;2023-04-24T02:51:01;11.90;99.90
6792;DHT22;3433;48.730;9.108;2023-04-24T02:53:29;11.90;99.90
6792;DHT22;3433;48.730;9.108;2023-04-24T02:55:58;12.00;99.90
6792;DHT22;3433;48.730;9.108;2023-04-24T02:58:39;11.90;99.90
6792;DHT22;3433;48.730;9.108;2023-04-24T03:01:06;11.70;99.90
6792;DHT22;3433;48.730;9.108;2023-04-24T03:03:32;11.70;99.90
6792;DHT22;3433;48.730;9.108;2023-04-24T03:06:01;11.60;99.90
6792;DHT22;3433;48.730;9.108;2023-04-24T03:08:28;11.50;99.90
6792;DHT22;3433;48.730;9.108;2023-04-24T03:10:55;11.60;99.90
6792;DHT22;3433;48.730;9.108;2023-04-24T03:13:22;11.60;99.90
6792;DHT22;3433;48.730;9.108;2023-04-24T03:15:49;11.50;99.90
6792;DHT22;3433;48.730;9.108;2023-04-24T03:18:16;11.60;99.90
6792;DHT22;3433;48.730;9.108;2023-04-24T03:20:45;11.50;99.90
6792;DHT22;3433;48.730;9.108;2023-04-24T03:23:14;11.40;99.90
6792;DHT22;3433;48.730;9.108;2023-04-24T03:25:41;11.40;99.90
6792;DHT22;3433;48.730;9.108;2023-04-24T03:28:08;11.30;99.90
6792;DHT22;3433;48.730;9.108;2023-04-24T03:30:35;11.20;99.90
6792;DHT22;3433;48.730;9.108;2023-04-24T03:33:02;11.30;99.90
6792;DHT22;3433;48.730;9.108;2023-04-24T03:35:29;11.30;99.90
6792;DHT22;3433;48.730;9.108;2023-04-24T03:37:56;11.20;99.90
6792;DHT22;3433;48.730;9.108;2023-04-24T03:40:25;11.20;99.90
6792;DHT22;3433;48.730;9.108;2023-04-24T03:42:54;11.30;99.90
6792;DHT22;3433;48.730;9.108;2023-04-24T03:45:23;11.30;99.90
6792;DHT22;3433;48.730;9.108;2023-04-24T03:47:50;11.30;99.90
6792;DHT22;3433;48.730;9.108;2023-04-24T03:50:17;11.20;99.90
6792;DHT22;3433;48.730;9.108;2023-04-24T03:52:44;11.30;99.90
6792;DHT22;3433;48.730;9.108;2023-04-24T03:55:11;11.30;99.90
6792;DHT22;3433;48.730;9.108;2023-04-24T03:57:40;11.30;99.90
6792;DHT22;3433;48.730;9.108;2023-04-24T04:00:09;11.40;99.90
6792;DHT22;3433;48.730;9.108;2023-04-24T04:02:36;11.30;99.90
6792;DHT22;3433;48.730;9.108;2023-04-24T04:05:04;11.20;99.90
6792;DHT22;3433;48.730;9.108;2023-04-24T04:07:31;11.20;99.90
6792;DHT22;3433;48.730;9.108;2023-04-24T04:09:58;11.20;99.90
6792;DHT22;3433;48.730;9.108;2023-04-24T04:12:24;11.20;99.90
6792;DHT22;3433;48.730;9.108;2023-04-24T04:14:53;11.20;99.90
6792;DHT22;3433;48.730;9.108;2023-04-24T04:17:20;11.20;99.90
6792;DHT22;3433;48.730;9.108;2023-04-24T04:19:47;11.20;99.90
6792;DHT22;3433;48.730;9.108;2023-04-24T04:22:20;11.20;99.90
6792;DHT22;3433;48.730;9.108;2023-04-24T04:24:55;11.20;99.90
6792;DHT22;3433;48.730;9.108;2023-04-24T04:27:23;11.30;99.90
6792;DHT22;3433;48.730;9.108;2023-04-24T04:29:50;11.20;99.90
6792;DHT22;3433;48.730;9.108;2023-04-24T04:32:18;11.10;99.90
6792;DHT22;3433;48.730;9.108;2023-04-24T04:34:45;11.00;99.90
6792;DHT22;3433;48.730;9.108;2023-04-24T04:37:12;11.10;99.90
6792;DHT22;3433;48.730;9.108;2023-04-24T04:39:39;11.00;99.90
6792;DHT22;3433;48.730;9.108;2023-04-24T04:42:06;10.90;99.90
6792;DHT22;3433;48.730;9.108;2023-04-24T04:44:33;10.90;99.90
6792;DHT22;3433;48.730;9.108;2023-04-24T04:47:01;10.90;99.90
6792;DHT22;3433;48.730;9.108;2023-04-24T04:49:32;10.90;99.90
6792;DHT22;3433;48.730;9.108;2023-04-24T04:52:00;11.00;99.90
6792;DHT22;3433;48.730;9.108;2023-04-24T04:54:26;10.90;99.90
6792;DHT22;3433;48.730;9.108;2023-04-24T04:56:56;11.00;99.90
6792;DHT22;3433;48.730;9.108;2023-04-24T04:59:24;11.00;99.90
6792;DHT22;3433;48.730;9.108;2023-04-24T05:01:51;10.90;99.90
6792;DHT22;3433;48.730;9.108;2023-04-24T05:04:18;10.80;99.90
6792;DHT22;3433;48.730;9.108;2023-04-24T05:06:46;10.80;99.90
6792;DHT22;3433;48.730;9.108;2023-04-24T05:09:13;10.90;99.90
6792;DHT22;3433;48.730;9.108;2023-04-24T05:11:40;10.90;99.90
6792;DHT22;3433;48.730;9.108;2023-04-24T05:14:07;10.90;99.90
6792;DHT22;3433;48.730;9.108;2023-04-24T05:16:34;10.90;99.90
6792;DHT22;3433;48.730;9.108;2023-04-24T05:19:02;10.90;99.90
6792;DHT22;3433;48.730;9.108;2023-04-24T05:21:29;10.80;99.90
6792;DHT22;3433;48.730;9.108;2023-04-24T05:23:58;10.90;99.90
6792;DHT22;3433;48.730;9.108;2023-04-24T05:26:25;10.90;99.90
6792;DHT22;3433;48.730;9.108;2023-04-24T05:28:52;10.90;99.90
6792;DHT22;3433;48.730;9.108;2023-04-24T05:31:19;10.90;99.90
6792;DHT22;3433;48.730;9.108;2023-04-24T05:33:46;11.00;99.90
6792;DHT22;3433;48.730;9.108;2023-04-24T05:36:13;10.90;99.90
6792;DHT22;3433;48.730;9.108;2023-04-24T05:38:40;10.90;99.90
6792;DHT22;3433;48.730;9.108;2023-04-24T05:41:08;10.90;99.90
6792;DHT22;3433;48.730;9.108;2023-04-24T05:43:35;11.00;99.90
6792;DHT22;3433;48.730;9.108;2023-04-24T05:46:02;11.20;99.90
6792;DHT22;3433;48.730;9.108;2023-04-24T05:48:29;11.50;99.90
6792;DHT22;3433;48.730;9.108;2023-04-24T05:50:56;11.70;99.90
6792;DHT22;3433;48.730;9.108;2023-04-24T05:53:24;12.00;99.90
6792;DHT22;3433;48.730;9.108;2023-04-24T05:55:51;12.10;99.90
6792;DHT22;3433;48.730;9.108;2023-04-24T05:58:19;12.00;99.90
6792;DHT22;3433;48.730;9.108;2023-04-24T06:00:46;12.00;99.90
6792;DHT22;3433;48.730;9.108;2023-04-24T06:03:13;11.80;99.90
6792;DHT22;3433;48.730;9.108;2023-04-24T06:05:41;11.80;99.90
6792;DHT22;3433;48.730;9.108;2023-04-24T06:08:08;11.70;99.90
6792;DHT22;3433;48.730;9.108;2023-04-24T06:10:35;11.70;99.90
6792;DHT22;3433;48.730;9.108;2023-04-24T06:13:02;11.60;99.90
6792;DHT22;3433;48.730;9.108;2023-04-24T06:15:30;11.50;99.90
6792;DHT22;3433;48.730;9.108;2023-04-24T06:17:57;11.50;99.90
6792;DHT22;3433;48.730;9.108;2023-04-24T06:20:24;11.40;99.90
6792;DHT22;3433;48.730;9.108;2023-04-24T06:22:53;11.40;99.90
6792;DHT22;3433;48.730;9.108;2023-04-24T06:25:25;11.50;99.90
6792;DHT22;3433;48.730;9.108;2023-04-24T06:27:56;11.60;99.90
6792;DHT22;3433;48.730;9.108;2023-04-24T06:30:31;11.60;99.90
6792;DHT22;3433;48.730;9.108;2023-04-24T06:32:58;11.70;99.90
6792;DHT22;3433;48.730;9.108;2023-04-24T06:35:25;11.80;99.90
6792;DHT22;3433;48.730;9.108;2023-04-24T06:37:55;11.80;99.90
6792;DHT22;3433;48.730;9.108;2023-04-24T06:40:22;11.90;99.90
6792;DHT22;3433;48.730;9.108;2023-04-24T06:42:50;11.80;99.90
6792;DHT22;3433;48.730;9.108;2023-04-24T06:45:17;11.90;99.90
6792;DHT22;3433;48.730;9.108;2023-04-24T06:47:45;11.80;99.90
6792;DHT22;3433;48.730;9.108;2023-04-24T06:50:12;11.90;99.90
6792;DHT22;3433;48.730;9.108;2023-04-24T06:52:40;11.90;99.90
6792;DHT22;3433;48.730;9.108;2023-04-24T06:55:08;12.00;99.90
6792;DHT22;3433;48.730;9.108;2023-04-24T06:57:35;12.10;99.90
6792;DHT22;3433;48.730;9.108;2023-04-24T07:00:03;12.30;99.90
6792;DHT22;3433;48.730;9.108;2023-04-24T07:02:30;12.40;99.90
6792;DHT22;3433;48.730;9.108;2023-04-24T07:04:58;12.40;99.90
6792;DHT22;3433;48.730;9.108;2023-04-24T07:07:26;12.60;99.90
6792;DHT22;3433;48.730;9.108;2023-04-24T07:09:56;12.50;99.90
6792;DHT22;3433;48.730;9.108;2023-04-24T07:12:23;12.40;99.90
6792;DHT22;3433;48.730;9.108;2023-04-24T07:14:50;12.40;99.90
6792;DHT22;3433;48.730;9.108;2023-04-24T07:17:17;12.30;99.90
6792;DHT22;3433;48.730;9.108;2023-04-24T07:19:44;12.20;99.90
6792;DHT22;3433;48.730;9.108;2023-04-24T07:22:13;12.30;99.90
6792;DHT22;3433;48.730;9.108;2023-04-24T07:24:42;12.00;99.90
6792;DHT22;3433;48.730;9.108;2023-04-24T07:27:09;12.00;99.90
6792;DHT22;3433;48.730;9.108;2023-04-24T07:29:37;12.00;99.90
6792;DHT22;3433;48.730;9.108;2023-04-24T07:32:03;12.00;99.90
6792;DHT22;3433;48.730;9.108;2023-04-24T07:34:30;12.10;99.90
6792;DHT22;3433;48.730;9.108;2023-04-24T07:36:57;12.40;99.90
6792;DHT22;3433;48.730;9.108;2023-04-24T07:39:26;12.70;99.90
6792;DHT22;3433;48.730;9.108;2023-04-24T07:41:55;12.70;99.90
6792;DHT22;3433;48.730;9.108;2023-04-24T07:44:27;12.70;99.90
6792;DHT22;3433;48.730;9.108;2023-04-24T07:46:57;12.70;99.90
6792;DHT22;3433;48.730;9.108;2023-04-24T07:49:31;12.70;99.90
6792;DHT22;3433;48.730;9.108;2023-04-24T07:52:02;12.90;99.90
6792;DHT22;3433;48.730;9.108;2023-04-24T07:54:33;12.80;99.90
6792;DHT22;3433;48.730;9.108;2023-04-24T07:57:00;12.60;99.90
6792;DHT22;3433;48.730;9.108;2023-04-24T07:59:35;12.60;99.90
6792;DHT22;3433;48.730;9.108;2023-04-24T08:02:06;12.70;99.90
6792;DHT22;3433;48.730;9.108;2023-04-24T08:04:38;12.70;99.90
6792;DHT22;3433;48.730;9.108;2023-04-24T08:07:18;12.60;99.90
6792;DHT22;3433;48.730;9.108;2023-04-24T08:09:49;12.50;99.90
6792;DHT22;3433;48.730;9.108;2023-04-24T08:12:17;12.40;99.90
6792;DHT22;3433;48.730;9.108;2023-04-24T08:14:55;12.30;99.90
6792;DHT22;3433;48.730;9.108;2023-04-24T08:17:30;12.40;99.90
6792;DHT22;3433;48.730;9.108;2023-04-24T08:20:01;12.60;99.90
6792;DHT22;3433;48.730;9.108;2023-04-24T08:22:28;12.70;99.90
6792;DHT22;3433;48.730;9.108;2023-04-24T08:25:00;12.60;99.90
6792;DHT22;3433;48.730;9.108;2023-04-24T08:27:30;12.80;99.90
6792;DHT22;3433;48.730;9.108;2023-04-24T08:29:57;12.80;99.50
6792;DHT22;3433;48.730;9.108;2023-04-24T08:32:24;12.80;98.60
6792;DHT22;3433;48.730;9.108;2023-04-24T08:34:53;12.80;99.00
6792;DHT22;3433;48.730;9.108;2023-04-24T08:37:21;13.00;98.80
6792;DHT22;3433;48.730;9.108;2023-04-24T08:39:49;13.30;99.50
6792;DHT22;3433;48.730;9.108;2023-04-24T08:42:25;13.40;99.40
6792;DHT22;3433;48.730;9.108;2023-04-24T08:44:59;13.30;98.40
6792;DHT22;3433;48.730;9.108;2023-04-24T08:47:27;13.40;98.70
6792;DHT22;3433;48.730;9.108;2023-04-24T08:49:56;13.50;98.70
6792;DHT22;3433;48.730;9.108;2023-04-24T08:52:25;13.80;99.20
6792;DHT22;3433;48.730;9.108;2023-04-24T08:54:54;14.00;98.80
6792;DHT22;3433;48.730;9.108;2023-04-24T08:57:23;13.70;98.20
6792;DHT22;3433;48.730;9.108;2023-04-24T08:59:52;13.70;98.50
6792;DHT22;3433;48.730;9.108;2023-04-24T09:02:39;13.80;99.00
6792;DHT22;3433;48.730;9.108;2023-04-24T09:05:10;13.70;98.00
6792;DHT22;3433;48.730;9.108;2023-04-24T09:07:39;14.20;98.90
6792;DHT22;3433;48.730;9.108;2023-04-24T09:10:08;14.10;98.00
6792;DHT22;3433;48.730;9.108;2023-04-24T09:12:37;14.10;98.30
6792;DHT22;3433;48.730;9.108;2023-04-24T09:15:07;14.00;98.90
6792;DHT22;3433;48.730;9.108;2023-04-24T09:17:34;14.00;98.40
6792;DHT22;3433;48.730;9.108;2023-04-24T09:20:05;13.90;97.50
6792;DHT22;3433;48.730;9.108;2023-04-24T09:22:36;13.70;97.40
6792;DHT22;3433;48.730;9.108;2023-04-24T09:25:03;13.60;98.00
6792;DHT22;3433;48.730;9.108;2023-04-24T09:27:32;13.40;97.60
6792;DHT22;3433;48.730;9.108;2023-04-24T09:30:01;13.20;97.10
6792;DHT22;3433;48.730;9.108;2023-04-24T09:32:28;13.50;97.40
6792;DHT22;3433;48.730;9.108;2023-04-24T09:35:07;13.80;97.80
6792;DHT22;3433;48.730;9.108;2023-04-24T09:37:36;13.90;97.10
6792;DHT22;3433;48.730;9.108;2023-04-24T09:40:16;14.00;95.10
6792;DHT22;3433;48.730;9.108;2023-04-24T09:42:51;14.20;94.60
6792;DHT22;3433;48.730;9.108;2023-04-24T09:45:20;14.10;94.50
6792;DHT22;3433;48.730;9.108;2023-04-24T09:47:51;14.40;96.20
6792;DHT22;3433;48.730;9.108;2023-04-24T09:50:18;14.10;94.30
6792;DHT22;3433;48.730;9.108;2023-04-24T09:52:46;13.80;93.90
6792;DHT22;3433;48.730;9.108;2023-04-24T09:55:16;13.70;95.10
6792;DHT22;3433;48.730;9.108;2023-04-24T09:57:48;13.80;95.80
6792;DHT22;3433;48.730;9.108;2023-04-24T10:00:21;13.70;95.20
6792;DHT22;3433;48.730;9.108;2023-04-24T10:02:56;13.50;94.70
6792;DHT22;3433;48.730;9.108;2023-04-24T10:05:24;13.50;94.60
6792;DHT22;3433;48.730;9.108;2023-04-24T10:07:51;13.40;94.00
6792;DHT22;3433;48.730;9.108;2023-04-24T10:10:18;13.70;95.00
6792;DHT22;3433;48.730;9.108;2023-04-24T10:12:46;13.70;94.20
6792;DHT22;3433;48.730;9.108;2023-04-24T10:15:13;14.00;94.20
6792;DHT22;3433;48.730;9.108;2023-04-24T10:17:45;14.00;93.70
6792;DHT22;3433;48.730;9.108;2023-04-24T10:20:20;14.00;93.90
6792;DHT22;3433;48.730;9.108;2023-04-24T10:22:48;14.30;93.40
6792;DHT22;3433;48.730;9.108;2023-04-24T10:25:17;14.50;93.40
6792;DHT22;3433;48.730;9.108;2023-04-24T10:27:46;14.50;93.60
6792;DHT22;3433;48.730;9.108;2023-04-24T10:30:14;14.70;92.80
6792;DHT22;3433;48.730;9.108;2023-04-24T10:32:41;14.90;92.70
6792;DHT22;3433;48.730;9.108;2023-04-24T10:35:10;14.50;92.70
6792;DHT22;3433;48.730;9.108;2023-04-24T10:37:40;14.40;92.60
6792;DHT22;3433;48.730;9.108;2023-04-24T10:40:10;14.40;93.10
6792;DHT22;3433;48.730;9.108;2023-04-24T10:42:40;14.30;92.80
6792;DHT22;3433;48.730;9.108;2023-04-24T10:45:16;14.40;93.30
6792;DHT22;3433;48.730;9.108;2023-04-24T10:47:56;14.40;93.30
6792;DHT22;3433;48.730;9.108;2023-04-24T10:50:25;14.30;93.50
6792;DHT22;3433;48.730;9.108;2023-04-24T10:53:05;14.40;93.50
6792;DHT22;3433;48.730;9.108;2023-04-24T10:55:44;14.30;93.90
6792;DHT22;3433;48.730;9.108;2023-04-24T10:58:11;14.20;93.70
6792;DHT22;3433;48.730;9.108;2023-04-24T11:00:42;14.30;94.10
6792;DHT22;3433;48.730;9.108;2023-04-24T11:03:26;14.20;93.20
6792;DHT22;3433;48.730;9.108;2023-04-24T11:05:59;13.90;93.90
6792;DHT22;3433;48.730;9.108;2023-04-24T11:08:31;13.60;93.80
6792;DHT22;3433;48.730;9.108;2023-04-24T11:11:00;13.40;93.90
6792;DHT22;3433;48.730;9.108;2023-04-24T11:14:06;13.40;94.20
6792;DHT22;3433;48.730;9.108;2023-04-24T11:16:35;13.40;94.30
6792;DHT22;3433;48.730;9.108;2023-04-24T11:19:05;13.50;94.60
6792;DHT22;3433;48.730;9.108;2023-04-24T11:21:40;13.50;94.80
6792;DHT22;3433;48.730;9.108;2023-04-24T11:24:27;13.20;94.30
6792;DHT22;3433;48.730;9.108;2023-04-24T11:26:55;13.00;94.20
6792;DHT22;3433;48.730;9.108;2023-04-24T11:29:22;13.50;94.90
6792;DHT22;3433;48.730;9.108;2023-04-24T11:31:49;13.80;95.00
6792;DHT22;3433;48.730;9.108;2023-04-24T11:34:17;13.80;94.00
6792;DHT22;3433;48.730;9.108;2023-04-24T11:36:46;13.80;94.60
6792;DHT22;3433;48.730;9.108;2023-04-24T11:39:14;13.70;94.00
6792;DHT22;3433;48.730;9.108;2023-04-24T11:41:41;13.30;94.10
6792;DHT22;3433;48.730;9.108;2023-04-24T11:44:09;13.20;94.90
6792;DHT22;3433;48.730;9.108;2023-04-24T11:46:37;13.20;94.90
6792;DHT22;3433;48.730;9.108;2023-04-24T11:49:05;13.10;94.70
6792;DHT22;3433;48.730;9.108;2023-04-24T11:51:32;12.90;94.90
6792;DHT22;3433;48.730;9.108;2023-04-24T11:54:02;13.10;95.40
6792;DHT22;3433;48.730;9.108;2023-04-24T11:56:34;13.10;95.40
6792;DHT22;3433;48.730;9.108;2023-04-24T11:59:04;13.30;94.60
6792;DHT22;3433;48.730;9.108;2023-04-24T12:01:42;13.50;94.90
6792;DHT22;3433;48.730;9.108;2023-04-24T12:04:09;13.70;95.20
6792;DHT22;3433;48.730;9.108;2023-04-24T12:06:36;13.80;95.10
6792;DHT22;3433;48.730;9.108;2023-04-24T12:09:05;13.70;95.00
6792;DHT22;3433;48.730;9.108;2023-04-24T12:11:32;13.60;94.60
6792;DHT22;3433;48.730;9.108;2023-04-24T12:14:10;13.50;94.50
6792;DHT22;3433;48.730;9.108;2023-04-24T12:16:38;13.20;94.80
6792;DHT22;3433;48.730;9.108;2023-04-24T12:19:05;13.00;94.80
6792;DHT22;3433;48.730;9.108;2023-04-24T12:21:31;12.80;95.10
6792;DHT22;3433;48.730;9.108;2023-04-24T12:23:58;12.90;95.40
6792;DHT22;3433;48.730;9.108;2023-04-24T12:26:27;13.00;95.70
6792;DHT22;3433;48.730;9.108;2023-04-24T12:28:54;13.00;95.30
6792;DHT22;3433;48.730;9.108;2023-04-24T12:31:21;13.10;95.00
6792;DHT22;3433;48.730;9.108;2023-04-24T12:33:49;13.10;94.60
6792;DHT22;3433;48.730;9.108;2023-04-24T12:36:16;13.10;94.80
6792;DHT22;3433;48.730;9.108;2023-04-24T12:38:44;13.30;95.20
6792;DHT22;3433;48.730;9.108;2023-04-24T12:41:13;13.30;95.40
6792;DHT22;3433;48.730;9.108;2023-04-24T12:43:52;13.30;94.80
6792;DHT22;3433;48.730;9.108;2023-04-24T12:46:20;13.20;94.80
6792;DHT22;3433;48.730;9.108;2023-04-24T12:48:46;13.10;95.10
6792;DHT22;3433;48.730;9.108;2023-04-24T12:51:13;12.90;95.40
6792;DHT22;3433;48.730;9.108;2023-04-24T12:53:40;12.70;95.50
6792;DHT22;3433;48.730;9.108;2023-04-24T12:56:07;12.60;95.70
6792;DHT22;3433;48.730;9.108;2023-04-24T12:58:34;12.60;95.50
6792;DHT22;3433;48.730;9.108;2023-04-24T13:01:02;12.30;95.70
6792;DHT22;3433;48.730;9.108;2023-04-24T13:03:29;12.20;95.80
6792;DHT22;3433;48.730;9.108;2023-04-24T13:05:56;12.20;95.80
6792;DHT22;3433;48.730;9.108;2023-04-24T13:08:23;12.20;96.60
6792;DHT22;3433;48.730;9.108;2023-04-24T13:10:50;12.20;97.30
6792;DHT22;3433;48.730;9.108;2023-04-24T13:13:17;12.30;98.00
6792;DHT22;3433;48.730;9.108;2023-04-24T13:15:44;12.20;99.10
6792;DHT22;3433;48.730;9.108;2023-04-24T13:18:12;12.40;99.80
6792;DHT22;3433;48.730;9.108;2023-04-24T13:20:39;12.50;99.60
6792;DHT22;3433;48.730;9.108;2023-04-24T13:23:06;12.70;99.20
6792;DHT22;3433;48.730;9.108;2023-04-24T13:25:35;13.10;99.50
6792;DHT22;3433;48.730;9.108;2023-04-24T13:28:02;13.30;99.70
6792;DHT22;3433;48.730;9.108;2023-04-24T13:30:30;13.60;99.60
6792;DHT22;3433;48.730;9.108;2023-04-24T13:32:57;13.50;98.70
6792;DHT22;3433;48.730;9.108;2023-04-24T13:35:26;13.40;98.60
6792;DHT22;3433;48.730;9.108;2023-04-24T13:37:52;13.10;97.40
6792;DHT22;3433;48.730;9.108;2023-04-24T13:40:19;13.10;98.00
6792;DHT22;3433;48.730;9.108;2023-04-24T13:42:46;13.00;98.10
6792;DHT22;3433;48.730;9.108;2023-04-24T13:45:13;12.70;97.80
6792;DHT22;3433;48.730;9.108;2023-04-24T13:47:40;12.60;98.60
6792;DHT22;3433;48.730;9.108;2023-04-24T13:50:08;12.50;99.30
6792;DHT22;3433;48.730;9.108;2023-04-24T13:52:36;12.50;99.60
6792;DHT22;3433;48.730;9.108;2023-04-24T13:55:04;12.70;99.70
6792;DHT22;3433;48.730;9.108;2023-04-24T13:57:31;12.70;99.60
6792;DHT22;3433;48.730;9.108;2023-04-24T13:59:58;13.10;99.80
6792;DHT22;3433;48.730;9.108;2023-04-24T14:02:27;13.00;99.90
6792;DHT22;3433;48.730;9.108;2023-04-24T14:04:54;13.30;99.90
6792;DHT22;3433;48.730;9.108;2023-04-24T14:07:20;13.20;98.70
6792;DHT22;3433;48.730;9.108;2023-04-24T14:09:49;13.10;98.90
6792;DHT22;3433;48.730;9.108;2023-04-24T14:12:16;12.60;98.20
6792;DHT22;3433;48.730;9.108;2023-04-24T14:14:45;12.60;99.60
6792;DHT22;3433;48.730;9.108;2023-04-24T14:17:13;12.50;99.60
6792;DHT22;3433;48.730;9.108;2023-04-24T14:19:40;12.50;99.30
6792;DHT22;3433;48.730;9.108;2023-04-24T14:22:07;12.40;99.90
6792;DHT22;3433;48.730;9.108;2023-04-24T14:24:34;12.20;99.90
6792;DHT22;3433;48.730;9.108;2023-04-24T14:27:03;12.20;99.90
6792;DHT22;3433;48.730;9.108;2023-04-24T14:29:30;12.10;99.90
6792;DHT22;3433;48.730;9.108;2023-04-24T14:31:56;12.40;99.90
6792;DHT22;3433;48.730;9.108;2023-04-24T14:34:23;12.90;99.90
6792;DHT22;3433;48.730;9.108;2023-04-24T14:36:50;13.30;99.90
6792;DHT22;3433;48.730;9.108;2023-04-24T14:39:17;13.60;99.90
6792;DHT22;3433;48.730;9.108;2023-04-24T14:41:44;13.60;99.90
6792;DHT22;3433;48.730;9.108;2023-04-24T14:44:12;13.40;99.90
6792;DHT22;3433;48.730;9.108;2023-04-24T14:46:39;13.40;99.90
6792;DHT22;3433;48.730;9.108;2023-04-24T14:49:06;13.40;99.90
6792;DHT22;3433;48.730;9.108;2023-04-24T14:51:36;13.10;99.90
6792;DHT22;3433;48.730;9.108;2023-04-24T14:54:03;13.50;99.90
6792;DHT22;3433;48.730;9.108;2023-04-24T14:56:30;14.10;99.90
6792;DHT22;3433;48.730;9.108;2023-04-24T14:58:56;14.50;99.90
6792;DHT22;3433;48.730;9.108;2023-04-24T15:01:25;14.60;99.80
6792;DHT22;3433;48.730;9.108;2023-04-24T15:03:51;14.50;99.30
6792;DHT22;3433;48.730;9.108;2023-04-24T15:06:18;14.30;98.80
6792;DHT22;3433;48.730;9.108;2023-04-24T15:08:45;14.00;98.10
6792;DHT22;3433;48.730;9.108;2023-04-24T15:11:12;13.90;98.60
6792;DHT22;3433;48.730;9.108;2023-04-24T15:13:39;13.70;98.30
6792;DHT22;3433;48.730;9.108;2023-04-24T15:16:06;13.60;99.50
6792;DHT22;3433;48.730;9.108;2023-04-24T15:18:34;13.70;99.90
6792;DHT22;3433;48.730;9.108;2023-04-24T15:21:01;13.70;99.90
6792;DHT22;3433;48.730;9.108;2023-04-24T15:23:28;13.60;98.20
6792;DHT22;3433;48.730;9.108;2023-04-24T15:25:58;13.50;99.30
6792;DHT22;3433;48.730;9.108;2023-04-24T15:28:25;13.40;98.30
6792;DHT22;3433;48.730;9.108;2023-04-24T15:30:52;13.30;98.30
6792;DHT22;3433;48.730;9.108;2023-04-24T15:33:19;13.20;98.70
6792;DHT22;3433;48.730;9.108;2023-04-24T15:35:47;13.20;98.60
6792;DHT22;3433;48.730;9.108;2023-04-24T15:38:15;13.10;99.20
6792;DHT22;3433;48.730;9.108;2023-04-24T15:40:42;12.70;99.30
6792;DHT22;3433;48.730;9.108;2023-04-24T15:43:10;12.80;99.90
6792;DHT22;3433;48.730;9.108;2023-04-24T15:45:37;12.90;99.90
6792;DHT22;3433;48.730;9.108;2023-04-24T15:48:04;12.90;99.90
6792;DHT22;3433;48.730;9.108;2023-04-24T15:50:31;12.90;99.90
6792;DHT22;3433;48.730;9.108;2023-04-24T15:52:59;12.90;99.90
6792;DHT22;3433;48.730;9.108;2023-04-24T15:55:27;12.90;99.90
6792;DHT22;3433;48.730;9.108;2023-04-24T15:57:54;12.80;99.90
6792;DHT22;3433;48.730;9.108;2023-04-24T16:00:21;12.90;99.90
6792;DHT22;3433;48.730;9.108;2023-04-24T16:02:48;12.90;99.90
6792;DHT22;3433;48.730;9.108;2023-04-24T16:05:16;12.90;99.90
6792;DHT22;3433;48.730;9.108;2023-04-24T16:07:44;12.90;99.90
6792;DHT22;3433;48.730;9.108;2023-04-24T16:10:12;12.80;99.90
6792;DHT22;3433;48.730;9.108;2023-04-24T16:12:39;12.70;99.90
6792;DHT22;3433;48.730;9.108;2023-04-24T16:15:07;12.80;99.90
6792;DHT22;3433;48.730;9.108;2023-04-24T16:17:33;12.80;99.90
6792;DHT22;3433;48.730;9.108;2023-04-24T16:20:00;12.80;99.90